Flight Track Log - Related Links

Times and Time Zones

All times are in EDT time to prevent confusion due to time zone crossing. See the FLG4057 flight status page for this flight to view local times or setup timezone preferences in your user account.

Time Position Orientation Groundspeed Altitude Reporting Facility
EDT Latitude Longitude Course Direction KTS MPH feet Rate Location/Type
Sat 04:08:04 PM 42.2069 -83.3514 276° West 154 177 1,300  Level FAA TRACON
Sat 04:08:24 PM 42.1950 -83.3619 213° Southwest 176 203 2,200 2,341 Climbing FAA TRACON
Sat 04:08:45 PM 42.1808 -83.3736 211° Southwest 188 216 2,900 2,780 Climbing FAA TRACON
Sat 04:09:05 PM 42.1647 -83.3878 213° Southwest 191 220 4,100 2,700 Climbing FAA TRACON
Sat 04:09:25 PM 42.1511 -83.4000 214° Southwest 211 243 4,700 1,800 Climbing FAA TRACON
Sat 04:09:45 PM 42.1314 -83.4178 214° Southwest 245 282 5,300 2,154 Climbing FAA TRACON
Sat 04:10:04 PM 42.1156 -83.4308 211° Southwest 254 292 6,100 3,000 Climbing FAA TRACON
Sat 04:10:25 PM 42.0994 -83.4600 233° Southwest 251 289 7,300 3,150 Climbing FAA TRACON
Sat 04:10:44 PM 42.1000 -83.4867 272° West 245 282 8,200 3,077 Climbing FAA TRACON
Sat 04:11:00 PM 42.2266 -83.7876 276° West  Level FlightAware
Sat 04:11:04 PM 42.1069 -83.5175 287° West 243 280 9,300  Level FAA TRACON
Sat 04:11:24 PM 42.1144 -83.5489 288° West 245 282 9,900 1,050 Climbing FAA TRACON
Sat 04:11:44 PM 42.1206 -83.5736 288° West 252 290 10,000 146 Climbing FAA TRACON
Sat 04:12:00 PM 42.2343 -83.8974 276° West  Level FlightAware
Sat 04:12:05 PM 42.1283 -83.6056 288° West 265 305 10,000  Level FAA TRACON
Sat 04:12:24 PM 42.1358 -83.6403 286° West 274 315 10,000  Level FAA TRACON
Sat 04:12:45 PM 42.1433 -83.6717 288° West 286 329 10,000 146 Level FAA TRACON
Sat 04:13:00 PM 42.2422 -84.0072 276° West  Level FlightAware
Sat 04:13:05 PM 42.1514 -83.7100 286° West 292 336 10,100  Level FAA TRACON
Sat 04:13:25 PM 42.1606 -83.7453 289° West 298 343 10,800 2,400 Climbing FAA TRACON
Sat 04:13:45 PM 42.1683 -83.7783 288° West 300 345 11,700 1,800 Climbing FAA TRACON
Sat 04:14:05 PM 42.1783 -83.8206 288° West 304 350 12,000 450 Climbing FAA TRACON
Sat 04:14:25 PM 42.1861 -83.8558 287° West 314 361 12,000  Level FAA TRACON
Sat 04:14:44 PM 42.1928 -83.8861 287° West 321 369 12,000  Level FAA TRACON
Sat 04:15:05 PM 42.2050 -83.9347 289° West 319 367 12,000  Level FAA TRACON
Sat 04:15:24 PM 42.2128 -83.9700 287° West 318 366 12,000  Level FAA TRACON
Sat 04:15:44 PM 42.2197 -84.0006 287° West 317 365 12,000  Level FAA TRACON
Sat 04:16:03 PM 42.2286 -84.0386 288° West 312 359 12,000  Level FAA TRACON
Sat 04:16:24 PM 42.2386 -84.0806 288° West 307 353 12,000  Level FAA TRACON
Sat 04:16:43 PM 42.2458 -84.1119 287° West 304 350 12,000  Level FAA TRACON
Sat 04:17:04 PM 42.2558 -84.1564 287° West 305 351 12,000  Level FAA TRACON
Sat 04:17:24 PM 42.2622 -84.1911 284° West 307 353 12,000  Level FAA TRACON
Sat 04:17:44 PM 42.2625 -84.2253 271° West 312 359 12,000  Level FAA TRACON
Sat 04:18:04 PM 42.2625 -84.2717 270° West 309 356 12,000  Level FAA TRACON
Sat 04:18:24 PM 42.2622 -84.3075 269° West 310 357 12,000  Level FAA TRACON
Sat 04:18:44 PM 42.2600 -84.3403 265° West 310 357 12,000  Level FAA TRACON
Sat 04:19:03 PM 42.2608 -84.3792 272° West 310 357 12,000  Level FAA TRACON
Sat 04:19:24 PM 42.2603 -84.4236 269° West 310 357 12,000 -146 Level FAA TRACON
Sat 04:19:44 PM 42.2594 -84.4553 268° West 310 357 11,900 -732 Descending FAA TRACON
Sat 04:20:05 PM 42.2586 -84.5047 269° West 312 359 11,500 -1,077 Descending FAA TRACON
Sat 04:20:23 PM 42.2583 -84.5411 269° West 314 361 11,200 -615 Descending FAA TRACON
Sat 04:20:44 PM 42.2583 -84.5503 270° West 314 361 11,100 -150 Descending FAA TRACON
Sat 04:21:03 PM 42.2583 -84.5503 26° Northeast 314 361 11,100  Level FAA TRACON
Sat 04:21:48 PM 42.2553 -84.7019 268° West 310 357 11,100  Level Chicago Center
Sat 04:22:50 PM 42.2531 -84.8167 269° West 307 353 11,100  Level Chicago Center
Sat 04:23:51 PM 42.2489 -84.9250 267° West 297 342 11,100 -683 Level Chicago Center
Sat 04:24:53 PM 42.2322 -85.0144 256° West 256 295 9,700 -1,355 Descending Chicago Center
Sat 04:25:55 PM 42.2194 -85.0972 258° West 245 282 8,300 -1,524 Descending Chicago Center
Sat 04:27:00 PM 42.2333 -85.2014 270° West  Level FlightAware
Sat 04:27:58 PM 42.1917 -85.2908 270° West 240 276 5,000  Level Chicago Center
Sat 04:29:00 PM 42.1714 -85.3756 252° West 241 277 3,700 -968 Descending Chicago Center
Sat 04:30:02 PM 42.1569 -85.4544 256° West 229 264 3,000 -677 Descending Chicago Center

Login

Don't have an account? Register now (free) for customized features, flight alerts, and more!